Time;durP1;ratioP1;P1;durP2;ratioP2;P2;SDS_P1;SDS_P2;PMS_P1;PMS_P2;Temp;Humidity;BMP_temperature;BMP_pressure;BME280_temperature;BME280_humidity;BME280_pressure;Samples;Min_cycle;Max_cycle;Signal;HPM_P1;HPM_P2
2024/03/15 00:00:13;;;;;;;51.50;35.45;;;282.50;2278.40;;;;;;5025549;28;20127;-69
2024/03/15 00:02:39;;;;;;;62.85;35.22;;;282.40;2278.40;;;;;;5027643;28;20025;-67
2024/03/15 00:05:05;;;;;;;58.13;37.47;;;282.40;2278.40;;;;;;5011417;28;20018;-68
2024/03/15 00:07:31;;;;;;;67.57;40.88;;;282.20;2278.40;;;;;;5020176;28;20104;-67
2024/03/15 00:09:57;;;;;;;64.78;41.03;;;282.30;2278.40;;;;;;5017876;28;20457;-66
2024/03/15 00:12:24;;;;;;;50.65;32.65;;;282.20;2278.40;;;;;;5012622;28;20034;-69
2024/03/15 00:14:49;;;;;;;69.95;44.10;;;282.30;2278.40;;;;;;5013807;28;20033;-68
2024/03/15 00:17:15;;;;;;;88.50;55.38;;;282.20;2278.40;;;;;;5011541;28;20021;-68
2024/03/15 00:19:41;;;;;;;112.60;66.55;;;282.20;2278.40;;;;;;5021774;28;20041;-67
2024/03/15 00:22:07;;;;;;;98.15;59.72;;;282.20;2278.40;;;;;;5022381;28;20041;-68
2024/03/15 00:24:33;;;;;;;87.28;56.15;;;282.10;2278.40;;;;;;5022477;28;20238;-69
2024/03/15 00:26:59;;;;;;;75.13;48.67;;;282.10;2278.40;;;;;;5008344;28;20670;-69
2024/03/15 00:29:29;;;;;;;56.67;37.72;;;282.20;2278.40;;;;;;4990615;28;20057;-69
2024/03/15 00:31:59;;;;;;;43.33;27.27;;;282.20;2278.40;;;;;;4990394;28;20104;-70
2024/03/15 00:34:25;;;;;;;28.98;20.40;;;282.20;2278.40;;;;;;5021661;28;20054;-68
2024/03/15 00:36:52;;;;;;;27.90;20.02;;;282.20;2278.40;;;;;;4995501;28;20018;-69
2024/03/15 00:39:20;;;;;;;61.42;40.97;;;282.10;2278.40;;;;;;4999528;28;20026;-70
2024/03/15 00:41:46;;;;;;;49.05;32.08;;;282.20;2278.40;;;;;;4994244;28;20104;-68
2024/03/15 00:44:14;;;;;;;33.28;22.83;;;282.20;2278.40;;;;;;5023513;28;20128;-68
2024/03/15 00:46:40;;;;;;;31.83;20.65;;;282.20;2278.40;;;;;;5028039;28;20180;-68
2024/03/15 00:49:06;;;;;;;39.45;24.17;;;282.30;2278.40;;;;;;5015611;28;20724;-68
2024/03/15 00:51:32;;;;;;;34.47;24.85;;;282.30;2278.40;;;;;;5028126;28;20537;-68
2024/03/15 00:53:58;;;;;;;40.60;29.15;;;282.30;2278.40;;;;;;5014549;28;20038;-68
2024/03/15 00:56:24;;;;;;;22.10;13.23;;;282.30;2278.40;;;;;;5016113;28;20022;-69
2024/03/15 00:58:51;;;;;;;44.03;27.25;;;307.60;2304.00;;;;;;5009648;28;20018;-69
2024/03/15 01:01:19;;;;;;;39.92;29.50;;;282.30;2278.40;;;;;;5008690;28;20480;-68
2024/03/15 01:03:45;;;;;;;29.05;19.25;;;282.30;2278.40;;;;;;5009666;28;20034;-68
2024/03/15 01:06:13;;;;;;;45.70;30.83;;;282.10;2278.40;;;;;;5009393;28;20049;-66
2024/03/15 01:08:39;;;;;;;38.38;26.73;;;282.20;2278.40;;;;;;5009507;28;20164;-72
2024/03/15 01:11:05;;;;;;;43.65;27.75;;;282.20;2278.40;;;;;;5008960;28;20032;-69
2024/03/15 01:13:31;;;;;;;27.15;20.67;;;282.20;2278.40;;;;;;5009424;28;20403;-68
2024/03/15 01:15:57;;;;;;;21.83;15.77;;;282.20;2278.40;;;;;;5009331;28;20088;-68
2024/03/15 01:18:23;;;;;;;26.52;19.35;;;282.20;2278.40;;;;;;5008870;28;20113;-71
2024/03/15 01:20:50;;;;;;;23.10;17.48;;;282.30;2278.40;;;;;;5009109;28;20026;-68
2024/03/15 01:23:18;;;;;;;21.60;13.25;;;282.30;2278.40;;;;;;5009255;28;20033;-68
2024/03/15 01:25:45;;;;;;;19.10;12.77;;;282.30;2278.40;;;;;;5008574;28;20018;-68
2024/03/15 01:28:12;;;;;;;30.70;18.77;;;282.30;2278.40;;;;;;5009170;28;20041;-67
2024/03/15 01:30:39;;;;;;;34.78;21.95;;;282.10;2278.40;;;;;;5008469;28;20057;-69
2024/03/15 01:33:05;;;;;;;27.55;16.33;;;282.10;2278.40;;;;;;5009292;28;20022;-67
2024/03/15 01:35:34;;;;;;;21.02;15.52;;;282.10;2278.40;;;;;;5008941;28;20026;-66
2024/03/15 01:38:00;;;;;;;88.88;71.85;;;282.10;2278.40;;;;;;5009091;28;20049;-64
2024/03/15 01:40:30;;;;;;;42.92;34.20;;;282.10;2278.40;;;;;;5011636;28;20034;-67
2024/03/15 01:42:56;;;;;;;23.55;17.27;;;282.10;2278.40;;;;;;5008680;28;20022;-67
2024/03/15 01:45:22;;;;;;;30.27;21.83;;;282.10;2278.40;;;;;;5008990;28;20032;-67
2024/03/15 01:47:49;;;;;;;35.80;24.92;;;282.10;2278.40;;;;;;5008898;28;20037;-68
2024/03/15 01:50:16;;;;;;;30.35;20.95;;;282.00;2278.40;;;;;;5008836;28;20484;-68
2024/03/15 01:52:42;;;;;;;26.50;16.25;;;282.00;2278.40;;;;;;5009142;28;20038;-69
2024/03/15 01:55:09;;;;;;;19.33;12.85;;;282.00;2278.40;;;;;;5008465;28;20026;-68
2024/03/15 01:57:36;;;;;;;17.02;11.07;;;282.00;2278.40;;;;;;5008872;28;20029;-68
2024/03/15 02:00:10;;;;;;;19.30;11.52;;;282.10;2278.40;;;;;;5008971;28;20033;-69
2024/03/15 02:02:37;;;;;;;23.52;14.68;;;282.10;2278.40;;;;;;5008730;28;20019;-68
2024/03/15 02:05:03;;;;;;;23.67;15.57;;;282.10;2278.40;;;;;;5008931;28;20030;-68
2024/03/15 02:07:29;;;;;;;22.80;14.73;;;282.00;2278.40;;;;;;5008808;28;20018;-68
2024/03/15 02:09:56;;;;;;;24.23;17.50;;;282.10;2278.40;;;;;;5008971;28;20026;-68
2024/03/15 02:12:23;;;;;;;24.88;16.42;;;282.10;2278.40;;;;;;5008564;28;20033;-69
2024/03/15 02:14:49;;;;;;;19.38;13.57;;;282.10;2278.40;;;;;;5008613;28;20034;-68
2024/03/15 02:17:16;;;;;;;21.50;13.93;;;282.00;2278.40;;;;;;5008531;28;20022;-68
2024/03/15 02:19:44;;;;;;;19.98;13.95;;;281.90;2278.40;;;;;;5008785;28;20026;-68
2024/03/15 02:22:13;;;;;;;29.92;16.30;;;282.00;2278.40;;;;;;5008461;28;20010;-68
2024/03/15 02:24:40;;;;;;;25.00;15.93;;;282.00;2278.40;;;;;;5008491;28;20025;-69
2024/03/15 02:27:13;;;;;;;24.60;14.70;;;282.00;2278.40;;;;;;5008262;28;20414;-67
2024/03/15 02:29:42;;;;;;;19.92;12.98;;;282.00;2278.40;;;;;;5009841;28;20053;-70
2024/03/15 02:32:08;;;;;;;22.92;12.60;;;281.90;2278.40;;;;;;5012101;28;20064;-67
2024/03/15 02:34:37;;;;;;;21.35;13.90;;;282.00;2278.40;;;;;;5012290;28;20048;-67
2024/03/15 02:37:03;;;;;;;21.65;13.65;;;282.00;2278.40;;;;;;5012360;28;20151;-67
2024/03/15 02:39:29;;;;;;;16.70;12.05;;;282.00;2278.40;;;;;;5011946;28;20163;-67
2024/03/15 02:41:58;;;;;;;17.30;11.63;;;281.90;2278.40;;;;;;5011741;28;20100;-67
2024/03/15 02:44:24;;;;;;;15.43;11.18;;;281.90;2278.40;;;;;;5012130;28;20161;-67
2024/03/15 02:46:50;;;;;;;13.80;10.30;;;281.90;2278.40;;;;;;5011882;28;20112;-66
2024/03/15 02:49:16;;;;;;;21.83;12.13;;;281.90;2278.40;;;;;;5011951;28;20022;-67
2024/03/15 02:51:42;;;;;;;20.90;13.68;;;281.90;2278.40;;;;;;5012039;28;20026;-67
2024/03/15 02:54:08;;;;;;;16.55;12.18;;;281.80;2278.40;;;;;;5011943;28;20030;-73
2024/03/15 02:56:35;;;;;;;16.20;11.38;;;281.80;2278.40;;;;;;5011673;28;20080;-67
2024/03/15 02:59:01;;;;;;;19.65;15.05;;;281.80;2278.40;;;;;;5011796;28;20026;-67
2024/03/15 03:01:27;;;;;;;23.17;15.10;;;281.70;2278.40;;;;;;5011450;28;20459;-67
2024/03/15 03:03:53;;;;;;;25.27;15.02;;;281.70;2278.40;;;;;;5011751;28;20053;-64
2024/03/15 03:06:19;;;;;;;20.67;15.55;;;281.80;2278.40;;;;;;5011517;28;20022;-67
2024/03/15 03:08:44;;;;;;;28.90;16.05;;;281.80;2278.40;;;;;;5012076;28;20037;-67
2024/03/15 03:11:11;;;;;;;21.75;14.70;;;281.80;2278.40;;;;;;5011498;28;20491;-67
2024/03/15 03:13:40;;;;;;;19.48;13.23;;;281.80;2278.40;;;;;;5011267;28;20036;-70
2024/03/15 03:16:06;;;;;;;17.70;12.68;;;281.80;2278.40;;;;;;5011332;28;20033;-67
2024/03/15 03:18:32;;;;;;;17.38;12.30;;;281.80;2278.40;;;;;;5010082;28;20026;-66
2024/03/15 03:20:57;;;;;;;20.25;12.85;;;281.70;2278.40;;;;;;5000382;28;20031;-67
2024/03/15 03:23:24;;;;;;;25.23;13.48;;;281.70;2278.40;;;;;;5006615;28;20113;-66
2024/03/15 03:25:51;;;;;;;25.42;18.85;;;281.70;2278.40;;;;;;5010982;28;20036;-67
2024/03/15 03:28:17;;;;;;;21.23;14.40;;;281.60;2278.40;;;;;;5011250;28;20536;-66
2024/03/15 03:30:43;;;;;;;21.60;14.30;;;281.60;2278.40;;;;;;5011079;28;20134;-67
2024/03/15 03:33:09;;;;;;;21.40;16.10;;;281.70;2278.40;;;;;;5010888;28;20030;-67
2024/03/15 03:35:35;;;;;;;21.10;18.15;;;281.70;2278.40;;;;;;5011282;28;20036;-68
2024/03/15 03:38:02;;;;;;;23.88;17.27;;;281.70;2278.40;;;;;;5011671;28;20055;-67
2024/03/15 03:40:28;;;;;;;26.38;17.90;;;281.60;2278.40;;;;;;5010792;28;20029;-67
2024/03/15 03:42:54;;;;;;;25.10;17.65;;;281.60;2278.40;;;;;;5010308;28;20026;-67
2024/03/15 03:45:22;;;;;;;27.98;19.15;;;256.90;2252.80;;;;;;5010785;28;20022;-67
2024/03/15 03:47:50;;;;;;;35.00;24.35;;;256.90;2252.80;;;;;;5010870;28;20037;-67
2024/03/15 03:50:18;;;;;;;43.92;25.88;;;256.80;2252.80;;;;;;5010951;28;20424;-66
2024/03/15 03:52:45;;;;;;;75.53;38.33;;;256.80;2252.80;;;;;;5011040;28;20037;-67
2024/03/15 03:55:11;;;;;;;71.53;39.65;;;256.80;2252.80;;;;;;5010529;28;20498;-67
2024/03/15 03:57:37;;;;;;;49.10;30.50;;;256.80;2252.80;;;;;;5010548;28;20026;-67
2024/03/15 04:00:16;;;;;;;39.33;30.25;;;256.80;2252.80;;;;;;5011192;28;20033;-66
2024/03/15 04:02:45;;;;;;;25.50;18.45;;;256.80;2252.80;;;;;;5010811;28;20112;-67
2024/03/15 04:05:18;;;;;;;21.52;14.60;;;256.70;2252.80;;;;;;5010670;28;20116;-67
2024/03/15 04:07:45;;;;;;;23.38;15.32;;;256.70;2252.80;;;;;;5010587;28;20028;-67
2024/03/15 04:10:12;;;;;;;22.90;15.50;;;256.70;2252.80;;;;;;5010240;28;20026;-66
2024/03/15 04:12:40;;;;;;;19.58;13.88;;;256.70;2252.80;;;;;;5010064;28;20060;-67
2024/03/15 04:15:09;;;;;;;20.58;13.52;;;256.70;2252.80;;;;;;5010469;28;20030;-67
2024/03/15 04:17:35;;;;;;;16.30;12.38;;;256.70;2252.80;;;;;;4998194;28;20026;-67
2024/03/15 04:20:01;;;;;;;17.77;11.90;;;256.70;2252.80;;;;;;5010634;28;20388;-67
2024/03/15 04:22:27;;;;;;;16.77;11.40;;;256.70;2252.80;;;;;;5010343;28;20026;-67
2024/03/15 04:24:54;;;;;;;19.10;11.45;;;256.60;2252.80;;;;;;5010222;28;20411;-66
2024/03/15 04:27:20;;;;;;;17.35;10.52;;;256.70;2252.80;;;;;;5009942;28;20045;-66
2024/03/15 04:29:46;;;;;;;14.38;10.75;;;256.70;2252.80;;;;;;5009739;28;20049;-67
2024/03/15 04:32:12;;;;;;;19.42;13.27;;;256.70;2252.80;;;;;;5010218;28;20591;-66
2024/03/15 04:34:38;;;;;;;34.65;24.63;;;256.80;2252.80;;;;;;5009824;28;20037;-66
2024/03/15 04:37:11;;;;;;;26.55;18.85;;;256.60;2252.80;;;;;;5010352;28;20028;-67
2024/03/15 04:39:37;;;;;;;45.60;30.90;;;256.70;2252.80;;;;;;5009825;28;20153;-66
2024/03/15 04:42:04;;;;;;;64.65;37.05;;;256.70;2252.80;;;;;;5010171;28;20026;-66
2024/03/15 04:44:36;;;;;;;35.85;22.13;;;256.60;2252.80;;;;;;5010015;28;20088;-66
2024/03/15 04:47:08;;;;;;;23.98;15.07;;;256.60;2252.80;;;;;;5009945;28;20040;-71
2024/03/15 04:49:34;;;;;;;16.10;11.18;;;256.50;2252.80;;;;;;5009650;28;20052;-66
2024/03/15 04:52:00;;;;;;;17.65;11.15;;;256.50;2252.80;;;;;;5009765;28;20074;-67
2024/03/15 04:54:27;;;;;;;16.80;12.57;;;256.60;2252.80;;;;;;5008874;28;20128;-67
2024/03/15 04:56:53;;;;;;;18.33;12.15;;;256.60;2252.80;;;;;;5009576;28;20056;-69
2024/03/15 04:59:19;;;;;;;16.38;10.63;;;256.80;2252.80;;;;;;5009313;28;20022;-74
2024/03/15 05:01:45;;;;;;;22.23;13.70;;;256.60;2252.80;;;;;;5005637;28;20022;-67
2024/03/15 05:04:11;;;;;;;19.67;13.57;;;256.70;2252.80;;;;;;5011962;28;20026;-66
2024/03/15 05:06:37;;;;;;;21.83;15.13;;;256.50;2252.80;;;;;;5009191;28;20025;-66
2024/03/15 05:09:05;;;;;;;24.95;15.38;;;256.50;2252.80;;;;;;5009911;28;20542;-67
2024/03/15 05:11:31;;;;;;;27.35;17.00;;;256.40;2252.80;;;;;;5009332;28;20018;-66
2024/03/15 05:13:57;;;;;;;17.15;12.02;;;256.40;2252.80;;;;;;5009251;28;20038;-67
2024/03/15 05:16:23;;;;;;;19.20;13.48;;;256.40;2252.80;;;;;;5009277;28;20494;-67
2024/03/15 05:18:49;;;;;;;10.35;6.63;;;256.50;2252.80;;;;;;5009451;28;20109;-67
2024/03/15 05:21:15;;;;;;;11.80;8.98;;;256.60;2252.80;;;;;;5009334;28;20069;-66
2024/03/15 05:23:40;;;;;;;14.93;9.98;;;256.70;2252.80;;;;;;5009716;28;20087;-67
2024/03/15 05:26:06;;;;;;;28.98;19.33;;;256.90;2252.80;;;;;;5008799;28;20376;-66
2024/03/15 05:28:33;;;;;;;22.52;15.90;;;281.60;2278.40;;;;;;5009163;28;20030;-67
2024/03/15 05:30:59;;;;;;;28.27;18.23;;;281.70;2278.40;;;;;;4998908;28;20095;-70
2024/03/15 05:33:25;;;;;;;67.85;43.78;;;281.90;2278.40;;;;;;5009319;28;20034;-66
2024/03/15 05:35:51;;;;;;;94.40;55.05;;;282.00;2278.40;;;;;;5009187;28;20042;-66
2024/03/15 05:38:18;;;;;;;57.63;33.75;;;282.10;2278.40;;;;;;5009192;28;20140;-68
2024/03/15 05:40:44;;;;;;;43.00;26.10;;;282.10;2278.40;;;;;;5008797;28;20029;-67
2024/03/15 05:43:09;;;;;;;36.22;24.17;;;282.20;2278.40;;;;;;5008804;28;20018;-67
2024/03/15 05:45:35;;;;;;;26.95;18.50;;;282.30;2278.40;;;;;;5009110;28;20519;-67
2024/03/15 05:48:01;;;;;;;98.60;70.30;;;307.30;2304.00;;;;;;5009257;28;20456;-68
2024/03/15 05:50:30;;;;;;;27.83;20.88;;;307.40;2304.00;;;;;;5008774;28;20029;-69
2024/03/15 05:53:00;;;;;;;19.92;13.00;;;307.60;2304.00;;;;;;5008613;28;20464;-67
2024/03/15 05:55:29;;;;;;;16.75;12.70;;;307.70;2304.00;;;;;;5008747;28;20116;-65
2024/03/15 05:57:55;;;;;;;24.05;17.63;;;307.70;2304.00;;;;;;5004453;28;20087;-67
2024/03/15 06:00:21;;;;;;;22.42;17.85;;;307.80;2304.00;;;;;;5006984;28;20038;-67
2024/03/15 06:02:51;;;;;;;22.67;16.73;;;308.00;2304.00;;;;;;5011784;28;20032;-67
2024/03/15 06:05:22;;;;;;;31.17;22.90;;;332.90;2329.60;;;;;;5009658;28;20022;-67
2024/03/15 06:07:48;;;;;;;61.88;46.00;;;333.00;2329.60;;;;;;5019742;28;20033;-74
2024/03/15 06:10:14;;;;;;;47.55;34.20;;;333.00;2329.60;;;;;;5022120;28;20037;-67
2024/03/15 06:12:40;;;;;;;63.92;44.58;;;332.90;2329.60;;;;;;5012698;28;20022;-68
2024/03/15 06:15:08;;;;;;;81.07;57.72;;;332.90;2329.60;;;;;;5012814;28;20053;-67
2024/03/15 06:17:34;;;;;;;37.15;26.50;;;332.80;2329.60;;;;;;5012835;28;20056;-67
2024/03/15 06:20:00;;;;;;;37.90;23.60;;;308.00;2304.00;;;;;;5012439;28;20049;-67
2024/03/15 06:22:26;;;;;;;43.30;29.20;;;307.80;2304.00;;;;;;5012667;28;20144;-67
2024/03/15 06:24:52;;;;;;;37.53;26.13;;;307.80;2304.00;;;;;;5012338;28;20544;-67
2024/03/15 06:27:20;;;;;;;60.67;42.40;;;307.70;2304.00;;;;;;5012499;28;20108;-67
2024/03/15 06:29:50;;;;;;;60.38;38.13;;;307.70;2304.00;;;;;;5012144;28;20043;-67
2024/03/15 06:32:17;;;;;;;41.17;29.52;;;307.60;2304.00;;;;;;5012470;28;20460;-68
2024/03/15 06:34:44;;;;;;;35.28;26.13;;;307.60;2304.00;;;;;;5012299;28;20030;-67
2024/03/15 06:37:14;;;;;;;39.10;24.30;;;307.80;2304.00;;;;;;5012115;28;20030;-69
2024/03/15 06:42:34;;;;;;;42.65;31.67;;;307.90;2304.00;;;;;;5012175;28;20058;-68
2024/03/15 06:45:23;;;;;;;51.95;36.35;;;307.90;2304.00;;;;;;5012290;28;20349;-71
2024/03/15 06:48:02;;;;;;;73.50;47.80;;;307.80;2304.00;;;;;;5012030;28;20045;-69
2024/03/15 06:50:48;;;;;;;102.30;69.18;;;307.80;2304.00;;;;;;5012335;28;20137;-69
2024/03/15 06:53:16;;;;;;;65.43;41.13;;;307.80;2304.00;;;;;;5011840;28;20060;-70
2024/03/15 06:55:43;;;;;;;54.60;36.22;;;307.80;2304.00;;;;;;5011984;28;20034;-68
2024/03/15 06:58:10;;;;;;;52.45;35.75;;;307.80;2304.00;;;;;;5012229;28;20022;-69
2024/03/15 07:00:35;;;;;;;58.85;37.80;;;307.80;2304.00;;;;;;5011875;28;20104;-71
2024/03/15 07:03:01;;;;;;;53.38;34.30;;;307.80;2304.00;;;;;;5011997;28;20117;-70
2024/03/15 07:05:28;;;;;;;48.17;30.90;;;307.80;2304.00;;;;;;5011523;28;20079;-73
2024/03/15 07:07:54;;;;;;;44.15;31.70;;;307.90;2304.00;;;;;;5011918;28;20022;-70
2024/03/15 07:10:19;;;;;;;44.63;31.25;;;307.80;2304.00;;;;;;5011447;28;20053;-68
2024/03/15 07:12:46;;;;;;;50.78;31.83;;;307.90;2304.00;;;;;;5012248;28;20068;-68
2024/03/15 07:15:15;;;;;;;65.97;43.28;;;308.00;2304.00;;;;;;5011319;28;20049;-70
2024/03/15 07:17:43;;;;;;;60.63;39.83;;;308.00;2304.00;;;;;;5010502;28;20460;-68
2024/03/15 07:20:12;;;;;;;52.17;32.40;;;308.00;2304.00;;;;;;5011460;28;20021;-68
2024/03/15 07:22:42;;;;;;;37.67;25.75;;;308.10;2304.00;;;;;;5011422;28;20488;-69
2024/03/15 07:25:10;;;;;;;33.75;22.15;;;308.10;2304.00;;;;;;5011499;28;20034;-68
2024/03/15 07:27:37;;;;;;;43.72;25.05;;;332.80;2329.60;;;;;;5011321;28;20022;-70
2024/03/15 07:30:05;;;;;;;24.05;16.85;;;332.80;2329.60;;;;;;5011314;28;20057;-69
2024/03/15 07:32:31;;;;;;;19.98;14.70;;;333.70;2329.60;;;;;;5011981;28;20022;-68
2024/03/15 07:34:57;;;;;;;21.95;14.57;;;333.00;2329.60;;;;;;5011191;28;20503;-68
2024/03/15 07:37:23;;;;;;;21.60;12.25;;;333.00;2329.60;;;;;;5011540;28;20139;-70
2024/03/15 07:39:49;;;;;;;19.17;11.65;;;333.00;2329.60;;;;;;5010848;28;20021;-68
2024/03/15 07:42:14;;;;;;;15.13;10.90;;;333.20;2329.60;;;;;;5011436;28;20025;-70
2024/03/15 07:44:40;;;;;;;14.77;10.50;;;333.20;2329.60;;;;;;5011070;28;20157;-69
2024/03/15 07:47:06;;;;;;;13.07;10.05;;;333.30;2329.60;;;;;;5011010;28;20022;-68
2024/03/15 07:49:33;;;;;;;20.55;11.80;;;333.40;2329.60;;;;;;5010694;28;20029;-68
2024/03/15 07:51:59;;;;;;;16.45;13.40;;;333.50;2329.60;;;;;;5011072;28;20018;-69
2024/03/15 07:54:25;;;;;;;18.05;13.30;;;333.60;2329.60;;;;;;5010249;28;20783;-70
2024/03/15 07:56:54;;;;;;;47.13;18.67;;;333.60;2329.60;;;;;;5010978;28;20022;-70
2024/03/15 07:59:20;;;;;;;17.15;12.45;;;333.60;2329.60;;;;;;5010563;28;20076;-69
2024/03/15 08:01:46;;;;;;;63.60;40.65;;;333.60;2329.60;;;;;;5010611;28;20101;-70
2024/03/15 08:04:14;;;;;;;41.78;27.52;;;333.60;2329.60;;;;;;5010573;28;20073;-72
2024/03/15 08:06:40;;;;;;;43.55;28.30;;;333.60;2329.60;;;;;;5010666;28;20526;-70
2024/03/15 08:09:06;;;;;;;33.40;23.55;;;333.50;2329.60;;;;;;5010473;28;20025;-71
2024/03/15 08:11:37;;;;;;;42.33;27.92;;;333.60;2329.60;;;;;;5010769;28;20022;-68
2024/03/15 08:14:03;;;;;;;26.17;16.88;;;333.70;2329.60;;;;;;5010373;28;20087;-72
2024/03/15 08:16:36;;;;;;;57.22;38.50;;;358.40;2329.60;;;;;;5010848;28;20025;-67
2024/03/15 08:19:04;;;;;;;77.97;51.85;;;358.50;2329.60;;;;;;5018931;28;20063;-72
2024/03/15 08:21:30;;;;;;;29.60;16.95;;;358.50;2329.60;;;;;;5004255;28;20026;-70
2024/03/15 08:23:57;;;;;;;34.42;23.42;;;358.40;2329.60;;;;;;4992282;28;20026;-69
2024/03/15 08:26:23;;;;;;;36.88;26.05;;;333.70;2329.60;;;;;;4992912;28;20057;-66
2024/03/15 08:28:49;;;;;;;69.22;46.65;;;333.70;2329.60;;;;;;5020993;28;20112;-69
2024/03/15 08:31:16;;;;;;;84.47;57.65;;;333.60;2329.60;;;;;;5018402;28;20387;-69
2024/03/15 08:33:45;;;;;;;127.30;89.70;;;333.70;2329.60;;;;;;5027224;28;20030;-70
2024/03/15 08:36:12;;;;;;;118.30;80.35;;;358.70;2329.60;;;;;;5026771;28;20174;-69
2024/03/15 08:38:39;;;;;;;98.18;71.30;;;358.80;2329.60;;;;;;4997869;28;20033;-70
2024/03/15 08:41:06;;;;;;;102.57;67.63;;;358.90;2329.60;;;;;;5003356;28;20506;-67
2024/03/15 08:43:32;;;;;;;99.97;67.70;;;359.00;2329.60;;;;;;5010533;28;20038;-69
2024/03/15 08:45:58;;;;;;;102.80;70.90;;;358.70;2329.60;;;;;;5007486;28;20026;-71
2024/03/15 08:48:27;;;;;;;104.03;69.65;;;358.70;2329.60;;;;;;5013049;28;20103;-72
2024/03/15 08:50:53;;;;;;;105.70;71.68;;;358.50;2329.60;;;;;;5008993;28;20036;-70
2024/03/15 08:53:19;;;;;;;148.25;101.72;;;358.50;2329.60;;;;;;5024976;28;20025;-69
2024/03/15 08:55:45;;;;;;;183.18;149.98;;;358.50;2329.60;;;;;;5003396;28;20488;-69
2024/03/15 08:58:11;;;;;;;172.48;129.43;;;358.60;2329.60;;;;;;5010097;28;20076;-69
2024/03/15 09:00:39;;;;;;;121.28;87.70;;;358.80;2329.60;;;;;;5022006;28;20436;-67
2024/03/15 09:03:06;;;;;;;122.28;89.53;;;358.90;2329.60;;;;;;5028757;28;20026;-70
2024/03/15 09:05:32;;;;;;;130.30;87.35;;;359.00;2329.60;;;;;;5027269;28;20080;-65
2024/03/15 09:07:58;;;;;;;139.55;102.88;;;359.20;2329.60;;;;;;5020823;28;20034;-67
2024/03/15 09:10:24;;;;;;;121.90;86.72;;;384.30;2329.60;;;;;;5024156;28;20029;-68
2024/03/15 09:12:50;;;;;;;119.75;87.65;;;384.40;2329.60;;;;;;5028538;28;20022;-67
2024/03/15 09:15:19;;;;;;;118.20;90.88;;;384.80;2329.60;;;;;;5027193;28;20083;-67
2024/03/15 09:17:46;;;;;;;125.45;91.00;;;409.60;2355.20;;;;;;5025119;28;20074;-70
2024/03/15 09:20:27;;;;;;;120.38;85.65;;;409.70;2355.20;;;;;;5009944;28;20034;-68
2024/03/15 09:22:53;;;;;;;81.30;63.22;;;410.00;2355.20;;;;;;5009266;28;20106;-69
2024/03/15 09:25:22;;;;;;;103.22;75.80;;;410.20;2355.20;;;;;;5008885;28;20050;-73
2024/03/15 09:27:52;;;;;;;106.00;74.07;;;410.40;2355.20;;;;;;5009162;28;20064;-68
2024/03/15 09:30:36;;;;;;;93.15;70.15;;;410.30;2355.20;;;;;;5008842;28;20050;-71
2024/03/15 09:33:03;;;;;;;;;;;410.30;2355.20;;;;;;5003285;28;20038;-70
2024/03/15 09:35:31;;;;;;;100.05;75.63;;;435.20;2355.20;;;;;;4996467;28;20215;-71
2024/03/15 09:37:57;;;;;;;90.70;71.68;;;410.50;2355.20;;;;;;4997912;28;20121;-72
2024/03/15 09:40:25;;;;;;;95.90;64.13;;;435.30;2355.20;;;;;;4993442;28;20388;-70
2024/03/15 09:42:53;;;;;;;70.97;51.35;;;435.30;2355.20;;;;;;5012243;28;20109;-70
2024/03/15 09:45:26;;;;;;;59.10;47.88;;;435.60;2304.00;;;;;;4998791;28;20029;-69
2024/03/15 09:47:53;;;;;;;48.35;37.35;;;435.80;2278.40;;;;;;4996567;28;20538;-71
2024/03/15 09:50:24;;;;;;;44.08;33.30;;;435.70;2227.20;;;;;;4996272;28;20472;-71
2024/03/15 09:52:51;;;;;;;38.28;30.50;;;435.20;2227.20;;;;;;4998074;28;20037;-68
2024/03/15 09:55:19;;;;;;;42.53;30.45;;;410.30;2227.20;;;;;;4992010;28;20172;-69
2024/03/15 09:57:46;;;;;;;55.20;41.13;;;410.50;2227.20;;;;;;4996445;28;20026;-68
2024/03/15 10:00:17;;;;;;;41.08;29.67;;;435.40;2201.60;;;;;;4989109;28;20022;-68
2024/03/15 10:02:47;;;;;;;42.65;31.13;;;435.70;2176.00;;;;;;5003187;28;20187;-70
2024/03/15 10:05:17;;;;;;;31.65;19.58;;;435.70;2124.80;;;;;;5001223;28;20022;-70
2024/03/15 10:07:43;;;;;;;27.42;20.00;;;435.90;2048.00;;;;;;4996029;28;20473;-70
2024/03/15 10:10:13;;;;;;;24.67;16.73;;;436.10;2022.40;;;;;;4999714;28;20380;-71
2024/03/15 10:12:45;;;;;;;30.60;21.55;;;460.80;1996.80;;;;;;4993872;28;20041;-70
2024/03/15 10:15:13;;;;;;;20.85;14.30;;;461.10;1971.20;;;;;;4997630;28;20057;-73
2024/03/15 10:17:40;;;;;;;17.95;12.93;;;461.50;1894.40;;;;;;4991352;28;20495;-69
2024/03/15 10:20:28;;;;;;;21.63;13.18;;;;;;;;;;5000926;28;20370;-71
2024/03/15 10:22:56;;;;;;;11.93;7.70;;;486.50;1766.40;;;;;;4996658;28;20030;-70
2024/03/15 10:25:24;;;;;;;31.02;17.90;;;486.40;1766.40;;;;;;5005788;28;20030;-68
2024/03/15 10:27:53;;;;;;;12.73;9.48;;;486.60;1792.00;;;;;;4992236;28;20030;-71
2024/03/15 10:30:23;;;;;;;11.80;6.88;;;;;;;;;;4997476;28;20045;-71
2024/03/15 10:32:53;;;;;;;15.15;11.30;;;;;;;;;;5000508;28;20068;-69
2024/03/15 10:35:21;;;;;;;17.45;13.85;;;;;;;;;;4997725;28;20034;-72
2024/03/15 10:37:47;;;;;;;10.13;5.78;;;;;;;;;;4990966;28;20577;-69
2024/03/15 10:40:18;;;;;;;12.02;8.30;;;;;;;;;;4995697;28;20085;-75
2024/03/15 10:42:49;;;;;;;23.88;18.05;;;;;;;;;;4993285;28;20026;-71
2024/03/15 10:45:20;;;;;;;12.55;9.23;;;486.70;1766.40;;;;;;4998053;28;20034;-70
2024/03/15 10:47:47;;;;;;;11.52;8.05;;;486.70;1792.00;;;;;;4990701;28;20038;-70
2024/03/15 10:50:18;;;;;;;21.08;14.57;;;486.70;1766.40;;;;;;4999188;28;20512;-71
2024/03/15 10:52:46;;;;;;;38.88;24.45;;;486.70;1792.00;;;;;;5000467;28;20018;-70
2024/03/15 10:55:25;;;;;;;30.88;20.90;;;486.50;1817.60;;;;;;4980142;28;20841;-68
2024/03/15 10:57:54;;;;;;;16.40;11.10;;;486.40;1817.60;;;;;;5003120;28;20042;-70
2024/03/15 11:00:27;;;;;;;17.13;14.90;;;461.60;1843.20;;;;;;5001581;28;20512;-67
2024/03/15 11:02:54;;;;;;;13.45;10.65;;;461.60;1843.20;;;;;;4998682;28;20040;-68
2024/03/15 11:05:23;;;;;;;11.20;8.95;;;461.40;1817.60;;;;;;5002740;28;20026;-69
2024/03/15 11:08:02;;;;;;;15.15;9.13;;;461.40;1868.80;;;;;;4992279;28;20030;-70
2024/03/15 11:10:28;;;;;;;11.20;8.73;;;461.50;1843.20;;;;;;5004497;28;20033;-67
2024/03/15 11:12:54;;;;;;;9.48;7.63;;;461.60;1843.20;;;;;;4997072;28;20026;-70
2024/03/15 11:15:24;;;;;;;11.68;7.25;;;461.60;1843.20;;;;;;5004813;28;20121;-67
2024/03/15 11:18:09;;;;;;;8.52;6.60;;;461.50;1843.20;;;;;;4996864;28;20032;-70
2024/03/15 11:20:45;;;;;;;9.60;5.80;;;461.60;1843.20;;;;;;5002064;28;20110;-68
2024/03/15 11:23:12;;;;;;;8.60;5.68;;;461.60;1817.60;;;;;;5001900;28;20023;-69
2024/03/15 11:25:38;;;;;;;10.48;6.32;;;461.60;1817.60;;;;;;4994279;28;20657;-70
2024/03/15 11:28:05;;;;;;;9.90;5.13;;;486.40;1817.60;;;;;;4994978;28;20034;-70
2024/03/15 11:30:31;;;;;;;8.25;4.90;;;461.70;1792.00;;;;;;5001631;28;20403;-69
2024/03/15 11:32:57;;;;;;;9.52;6.70;;;461.70;1792.00;;;;;;4997538;28;20026;-68
2024/03/15 11:35:23;;;;;;;7.80;4.97;;;461.70;1792.00;;;;;;5000490;28;20100;-67
2024/03/15 11:37:55;;;;;;;17.17;11.10;;;461.50;1792.00;;;;;;4999847;28;20032;-69
2024/03/15 11:40:26;;;;;;;13.85;7.30;;;461.70;1817.60;;;;;;5002316;28;20565;-69
2024/03/15 11:42:52;;;;;;;13.32;7.75;;;461.70;1817.60;;;;;;4993908;28;20134;-73
2024/03/15 11:45:18;;;;;;;9.00;7.30;;;486.40;1817.60;;;;;;4997722;28;20120;-69
2024/03/15 11:47:44;;;;;;;20.92;14.05;;;486.40;1792.00;;;;;;5000265;28;20559;-71
2024/03/15 11:50:14;;;;;;;13.20;8.23;;;486.70;1792.00;;;;;;5001451;28;20033;-69
2024/03/15 11:52:40;;;;;;;7.47;5.15;;;486.80;1792.00;;;;;;4998987;28;20034;-68
2024/03/15 11:55:12;;;;;;;8.30;6.43;;;487.00;1766.40;;;;;;5002984;28;20048;-69
2024/03/15 11:57:41;;;;;;;9.40;6.82;;;487.00;1740.80;;;;;;5000071;28;20387;-69
2024/03/15 12:00:12;;;;;;;9.35;6.97;;;487.00;1766.40;;;;;;4995886;28;20034;-73
2024/03/15 12:02:38;;;;;;;15.07;9.05;;;486.70;1817.60;;;;;;5003328;28;20022;-73
2024/03/15 12:05:12;;;;;;;10.90;7.53;;;486.80;1817.60;;;;;;5001157;28;20022;-68
2024/03/15 12:07:37;;;;;;;;;;;486.90;1792.00;;;;;;4997960;28;20022;-74